Latest Weather Observations for Esperance Airport

IDW60801

Issued at 1:32 pm WST Sunday 7 February 2016 (issued every 30 minutes, with the page automatically refreshed every 10 minutes)

About weather observations | Map of weather stations | Latest weather observations for WA | Other Formats
Station Details ID: 009542 Name: ESPERANCE AERO Lat: -33.68 Lon: 121.83 Height: 142.0 m
Data from the previous 72 hours. | See also: Recent months at Esperance Airport
Date/Time
WST
Temp
°C
App
Temp
°C
Dew
Point
Rel
Hum
%
Delta-T
°C
Wind Press
QNH
hPa
Press
MSL
hPa
Rain
since 9 am
mm
Dir
 
Spd
km/h
Gust
km/h
Spd
kts
Gust
kts
07/01:30pm 28.5 24.7 15.8 46 7.8 SE 30 37 16 20 1019.5 1019.0 0.0
07/01:00pm 29.0 25.5 15.5 44 8.3 SSE 28 35 15 19 1019.5 1019.0 0.0
07/12:30pm 29.5 27.0 14.1 39 9.3 SE 20 32 11 17 1019.8 1019.3 0.0
07/12:00pm 30.5 27.5 10.5 29 11.5 E 17 30 9 16 1020.3 1019.8 0.0
07/11:30am 29.0 26.6 10.2 31 10.7 ENE 13 24 7 13 1020.7 1020.2 0.0
07/11:00am 28.2 26.3 10.4 33 10.1 ESE 11 20 6 11 1020.9 1020.4 0.0
07/10:30am 26.8 24.4 10.1 35 9.4 ENE 13 26 7 14 1021.1 1020.6 0.0
07/10:00am 26.0 24.4 11.7 41 8.2 E 11 22 6 12 1021.4 1020.9 0.0
07/09:30am 24.0 23.2 12.9 50 6.4 ENE 9 15 5 8 1021.6 1021.1 0.0
07/09:00am 22.1 21.3 12.9 56 5.3 NE 9 19 5 10 1021.7 1021.2 0.0
07/08:30am 21.3 20.0 13.7 62 4.4 NE 13 17 7 9 1021.6 1021.1 0.0
07/08:00am 19.3 18.6 14.3 73 2.9 NE 11 19 6 10 1021.6 1021.1 0.0
07/07:35am 17.7 16.9 15.0 84 1.6 ENE 13 19 7 10 1021.6 1021.1 0.0
07/07:30am 17.6 16.8 15.2 86 1.4 ENE 13 17 7 9 1021.7 1021.2 0.0
07/07:17am 16.5 15.7 15.2 92 0.8 E 13 19 7 10 1021.7 1021.2 0.0
07/07:04am 15.6 14.6 14.5 93 0.6 E 13 17 7 9 1021.7 1021.2 0.0
07/07:00am 15.5 14.4 14.4 93 0.6 E 13 17 7 9 1021.6 1021.1 0.0
07/06:52am 15.7 14.7 14.7 94 0.6 E 13 15 7 8 1021.6 1021.1 0.0
07/06:30am 15.0 13.9 14.2 95 0.5 E 13 15 7 8 1021.4 1020.9 0.0
07/06:02am 14.2 13.2 13.4 95 0.4 E 11 17 6 9 1021.0 1020.5 0.0
07/06:01am 14.2 13.2 13.4 95 0.4 E 11 17 6 9 1021.0 1020.5 0.0
07/06:00am 14.2 13.2 13.4 95 0.4 E 11 17 6 9 1021.0 1020.5 0.0
07/05:30am 13.8 12.6 12.9 94 0.5 E 11 15 6 8 1020.5 1020.0 0.0
07/05:00am 13.8 13.0 12.9 94 0.5 E 9 13 5 7 1020.2 1019.7 0.0
07/04:30am 13.9 13.1 13.0 94 0.5 E 9 13 5 7 1019.8 1019.3 0.0
07/04:00am 14.2 13.1 13.1 93 0.6 E 11 15 6 8 1019.5 1019.0 0.0
07/03:30am 14.7 13.8 13.7 94 0.6 E 11 15 6 8 1019.4 1018.9 0.0
07/03:00am 14.6 13.2 13.5 93 0.6 ESE 13 13 7 7 1019.4 1018.9 0.0
07/02:30am 15.1 14.6 13.8 92 0.7 SE 9 13 5 7 1019.3 1018.8 0.0
07/02:00am 15.8 15.1 14.2 90 0.9 E 11 13 6 7 1018.9 1018.4 0.0
07/01:30am 15.4 14.2 13.9 91 0.9 ESE 13 13 7 7 1019.0 1018.5 0.0
07/01:00am 15.4 14.9 13.9 91 0.8 SE 9 13 5 7 1019.0 1018.5 0.0
07/12:30am 16.0 15.4 14.5 91 0.9 ESE 11 13 6 7 1019.0 1018.5 0.0
07/12:00am 16.1 15.9 14.8 92 0.7 SE 9 11 5 6 1019.3 1018.8 0.0
 
Date/Time
WST
Temp
°C
App
Temp
°C
Dew
Point
Rel
Hum
%
Delta-T
°C
Wind Press
QNH
hPa
Press
MSL
hPa
Rain
since 9 am
mm
Dir
 
Spd
km/h
Gust
km/h
Spd
kts
Gust
kts
06/11:30pm 16.6 16.7 15.5 93 0.6 ESE 9 11 5 6 1019.3 1018.8 0.0
06/11:00pm 16.6 16.6 15.3 92 0.8 SE 9 11 5 6 1019.3 1018.8 0.0
06/10:30pm 17.2 17.5 15.9 92 0.8 SSE 9 11 5 6 1019.4 1018.9 0.0
06/10:00pm 17.5 18.4 16.2 92 0.8 SSE 6 9 3 5 1019.4 1018.9 0.0
06/09:30pm 17.6 18.0 16.3 92 0.8 SSE 9 11 5 6 1019.4 1018.9 0.0
06/09:00pm 17.7 17.7 16.2 91 0.9 S 11 13 6 7 1019.3 1018.8 0.0
06/08:30pm 18.2 18.6 16.4 89 1.1 S 9 13 5 7 1019.1 1018.6 0.0
06/08:00pm 18.5 18.1 16.1 86 1.4 S 13 15 7 8 1018.7 1018.2 0.0
06/07:30pm 19.2 18.5 15.5 79 2.2 S 13 15 7 8 1018.5 1017.9 0.0
06/07:00pm 20.6 19.1 15.2 71 3.2 S 17 19 9 10 1018.2 1017.6 0.0
06/06:30pm 22.3 20.2 14.7 62 4.5 S 19 22 10 12 1017.7 1017.1 0.0
06/06:00pm 23.4 21.2 14.9 59 5.1 S 20 24 11 13 1017.3 1016.7 0.0
06/05:30pm 24.4 22.3 14.8 55 5.8 SSE 19 24 10 13 1016.9 1016.3 0.0
06/05:00pm 25.6 23.6 15.0 52 6.4 SSE 19 26 10 14 1016.5 1015.9 0.0
06/04:30pm 25.5 23.3 14.3 50 6.7 SSE 19 24 10 13 1016.5 1015.9 0.0
06/04:00pm 26.2 23.3 14.0 47 7.3 SSE 22 30 12 16 1016.5 1015.9 0.0
06/03:30pm 26.8 23.1 12.8 42 8.2 SSE 24 32 13 17 1016.5 1015.9 0.0
06/03:00pm 27.4 23.4 11.8 38 9.0 SSE 24 32 13 17 1016.3 1015.8 0.0
06/02:30pm 29.3 25.3 11.8 34 10.2 SSE 24 33 13 18 1016.5 1015.9 0.0
06/02:00pm 29.7 26.4 11.7 33 10.5 SSE 20 28 11 15 1016.3 1015.8 0.0
06/01:30pm 28.3 24.2 11.4 35 9.8 S 24 33 13 18 1016.7 1016.1 0.0
06/01:00pm 29.7 25.8 12.2 34 10.3 SSE 24 30 13 16 1016.7 1016.1 0.0
06/12:30pm 30.4 27.0 11.4 31 11.1 SSE 20 30 11 16 1016.7 1016.1 0.0
06/12:00pm 30.6 28.5 11.1 30 11.3 SSE 13 22 7 12 1016.8 1016.2 0.0
06/11:30am 30.3 29.0 9.8 28 11.6 WSW 7 17 4 9 1017.1 1016.5 0.0
06/11:00am 30.4 29.0 8.7 26 12.1 NW 6 13 3 7 1017.4 1016.8 0.0
06/10:30am 29.2 27.4 10.8 32 10.6 W 11 17 6 9 1017.7 1017.1 0.0
06/10:00am 28.2 25.9 10.4 33 10.1 WSW 13 20 7 11 1017.7 1017.1 0.0
06/09:30am 27.6 25.3 10.3 34 9.8 WNW 13 20 7 11 1017.8 1017.2 0.0
06/09:00am 26.6 23.6 10.7 37 9.0 WNW 17 24 9 13 1017.8 1017.2 0.0
06/08:30am 25.9 23.0 10.9 39 8.5 NW 17 24 9 13 1017.7 1017.1 0.0
06/08:00am 24.3 21.9 12.6 48 6.8 NNW 17 26 9 14 1017.7 1017.1 0.0
06/07:30am 21.6 17.8 12.5 56 5.2 N 24 30 13 16 1017.6 1017.0 0.0
06/07:00am 20.0 16.8 13.2 65 3.9 N 22 28 12 15 1017.5 1016.9 0.0
06/06:30am 17.6 14.3 12.7 73 2.7 N 22 28 12 15 1017.2 1016.6 0.0
06/06:00am 16.2 13.1 12.2 77 2.2 NNE 20 28 11 15 1017.0 1016.4 0.0
06/05:30am 15.4 11.9 12.2 81 1.8 NNE 22 30 12 16 1016.6 1016.0 0.0
06/05:00am 15.3 12.2 12.1 81 1.7 NNE 20 26 11 14 1016.5 1015.9 0.0
06/04:30am 15.4 12.3 12.3 82 1.7 NNE 20 30 11 16 1015.9 1015.4 0.0
06/04:00am 15.5 12.6 12.3 81 1.8 NNE 19 26 10 14 1015.6 1015.1 0.0
06/03:30am 15.7 12.7 12.5 81 1.8 NNE 20 26 11 14 1015.4 1014.9 0.0
06/03:00am 15.9 12.5 12.5 80 1.9 NNE 22 30 12 16 1015.3 1014.8 0.0
06/02:30am 16.0 13.2 12.6 80 1.9 NNE 19 24 10 13 1015.5 1015.0 0.0
06/02:00am 16.1 13.7 12.5 79 2.0 NNE 17 22 9 12 1015.6 1015.1 0.0
06/01:30am 16.6 14.2 12.8 78 2.1 NNE 17 24 9 13 1015.7 1015.2 0.0
06/01:00am 16.8 14.4 12.5 76 2.4 NE 17 22 9 12 1015.7 1015.2 0.0
06/12:30am 17.4 15.4 12.7 74 2.6 NE 15 22 8 12 1016.0 1015.5 0.0
06/12:00am 18.0 16.1 12.9 72 2.9 NE 15 22 8 12 1016.1 1015.6 0.0
 
Date/Time
WST
Temp
°C
App
Temp
°C
Dew
Point
Rel
Hum
%
Delta-T
°C
Wind Press
QNH
hPa
Press
MSL
hPa
Rain
since 9 am
mm
Dir
 
Spd
km/h
Gust
km/h
Spd
kts
Gust
kts
05/11:30pm 18.3 16.0 13.0 71 3.0 NE 17 24 9 13 1016.1 1015.6 0.0
05/11:00pm 18.8 16.5 13.0 69 3.3 NE 17 22 9 12 1016.3 1015.8 0.0
05/10:30pm 19.2 16.9 12.9 67 3.6 NE 17 28 9 15 1016.3 1015.8 0.0
05/10:00pm 19.5 17.1 12.8 65 3.8 NE 17 24 9 13 1016.3 1015.8 0.0
05/09:30pm 20.2 17.8 12.7 62 4.3 ENE 17 26 9 14 1016.6 1016.0 0.0
05/09:00pm 20.6 18.2 12.8 61 4.4 ENE 17 22 9 12 1016.8 1016.2 0.0
05/08:30pm 21.3 18.8 12.4 57 5.1 E 17 24 9 13 1016.7 1016.1 0.0
05/08:00pm 22.2 19.6 11.9 52 5.8 E 17 22 9 12 1016.5 1015.9 0.0
05/07:30pm 22.6 19.3 11.0 48 6.5 E 19 22 10 12 1016.2 1015.7 0.0
05/07:00pm 23.4 19.6 11.1 46 6.9 E 22 30 12 16 1016.0 1015.5 0.0
05/06:30pm 24.3 20.8 10.9 43 7.5 ESE 20 28 11 15 1016.1 1015.6 0.0
05/06:00pm 25.3 20.3 11.1 41 8.0 ESE 28 33 15 18 1015.8 1015.3 0.0
05/05:30pm 26.0 21.1 11.4 40 8.3 SE 28 33 15 18 1015.6 1015.1 0.0
05/05:00pm 26.9 22.5 11.8 39 8.7 SE 26 35 14 19 1015.5 1015.0 0.0
05/04:30pm 27.7 23.2 11.3 36 9.4 SE 26 35 14 19 1015.5 1015.0 0.0
05/04:00pm 28.7 24.2 11.3 34 10.0 SE 26 35 14 19 1015.3 1014.8 0.0
05/03:30pm 29.1 24.2 11.2 33 10.3 ESE 28 35 15 19 1015.3 1014.8 0.0
05/03:00pm 29.9 25.6 11.9 33 10.5 ESE 26 35 14 19 1015.3 1014.8 0.0
05/02:30pm 30.6 27.8 10.0 28 11.7 E 15 28 8 15 1015.5 1015.0 0.0
05/02:00pm 29.7 27.3 8.7 27 11.7 ESE 11 19 6 10 1015.9 1015.4 0.0
05/01:30pm 29.6 27.6 8.6 27 11.6 NNE 9 17 5 9 1016.1 1015.6 0.0
05/01:00pm 28.5 26.3 9.2 30 10.7 ENE 11 48 6 26 1016.6 1016.0 0.0
05/12:30pm 28.0 25.6 8.8 30 10.6 NE 11 20 6 11 1017.0 1016.4 0.0
05/12:00pm 27.8 25.4 10.1 33 10.0 ENE 13 22 7 12 1017.5 1016.9 0.0
05/11:30am 26.8 24.6 9.2 33 9.7 NE 11 19 6 10 1017.8 1017.2 0.0
05/11:00am 27.1 24.4 10.3 35 9.5 NNW 15 26 8 14 1018.2 1017.6 0.0
05/10:30am 26.7 24.0 10.4 36 9.2 NNE 15 24 8 13 1018.7 1018.2 0.0
05/10:00am 25.7 22.3 11.1 40 8.3 NNE 20 28 11 15 1019.2 1018.7 0.0
05/09:30am 25.4 21.6 11.2 41 8.1 N 22 30 12 16 1019.5 1019.0 0.0
05/09:00am 23.1 19.3 11.2 47 6.7 NNE 22 30 12 16 1019.6 1019.1 0.0
05/08:30am 22.4 17.6 11.5 50 6.1 NNE 28 37 15 20 1019.8 1019.3 0.0
05/08:00am 20.5 15.7 11.7 57 4.9 NNE 28 39 15 21 1020.1 1019.6 0.0
05/07:30am 19.2 14.8 11.7 62 4.2 NNE 26 37 14 20 1020.3 1019.8 0.0
05/07:00am 17.6 13.3 11.9 69 3.1 NNE 26 37 14 20 1020.2 1019.7 0.0
05/06:30am 16.3 13.0 12.7 79 2.0 NNE 22 30 12 16 1020.2 1019.7 0.0
05/06:00am 15.2 12.2 12.5 84 1.5 NNE 20 32 11 17 1020.1 1019.6 0.0
05/05:30am 14.7 11.9 12.6 87 1.2 NNE 19 26 10 14 1019.8 1019.3 0.0
05/05:00am 14.7 11.9 12.6 87 1.2 NNE 19 26 10 14 1019.6 1019.1 0.0
05/04:30am 14.8 12.0 12.5 86 1.3 NNE 19 26 10 14 1019.5 1019.0 0.0
05/04:00am 15.1 12.1 12.6 85 1.4 NNE 20 28 11 15 1019.4 1018.9 0.0
05/03:30am 15.2 12.2 12.5 84 1.5 NNE 20 28 11 15 1019.5 1019.0 0.0
05/03:00am 15.4 12.3 12.3 82 1.7 NNE 20 32 11 17 1019.5 1019.0 0.0
05/02:30am 15.6 12.6 12.4 81 1.8 NNE 20 30 11 16 1019.5 1019.0 0.0
05/02:00am 15.8 12.8 12.4 80 1.9 NNE 20 32 11 17 1019.7 1019.2 0.0
05/01:30am 16.1 13.1 12.5 79 2.0 NE 20 28 11 15 1019.8 1019.3 0.0
05/01:00am 16.4 13.5 12.8 79 2.0 NE 20 35 11 19 1020.0 1019.5 0.0
05/12:30am 16.5 13.5 12.7 78 2.1 NE 20 32 11 17 1020.2 1019.7 0.0
05/12:00am 16.7 13.9 12.7 77 2.2 NE 19 28 10 15 1020.3 1019.8 0.0
 
Date/Time
WST
Temp
°C
App
Temp
°C
Dew
Point
Rel
Hum
%
Delta-T
°C
Wind Press
QNH
hPa
Press
MSL
hPa
Rain
since 9 am
mm
Dir
 
Spd
km/h
Gust
km/h
Spd
kts
Gust
kts
04/11:30pm 17.1 14.3 12.6 75 2.5 NE 19 32 10 17 1020.6 1020.1 0.0
04/11:00pm 17.3 14.5 12.6 74 2.6 ENE 19 32 10 17 1020.8 1020.3 0.0
04/10:30pm 17.7 14.8 12.2 70 3.1 ENE 19 26 10 14 1020.8 1020.3 0.0
04/10:00pm 18.1 15.4 11.7 66 3.5 ENE 17 24 9 13 1020.9 1020.4 0.0
04/09:30pm 18.6 15.4 11.4 63 4.0 ENE 19 30 10 16 1021.0 1020.5 0.0
04/09:00pm 18.8 15.6 11.4 62 4.1 E 19 24 10 13 1020.9 1020.4 0.0
04/08:30pm 19.5 16.2 11.5 60 4.4 E 20 32 11 17 1020.7 1020.2 0.0
04/08:00pm 19.6 15.7 12.1 62 4.2 E 24 32 13 17 1020.6 1020.1 0.0
04/07:30pm 19.7 16.6 12.2 62 4.2 ESE 20 30 11 16 1020.5 1020.0 0.0
04/07:00pm 20.2 17.0 11.9 59 4.6 ESE 20 28 11 15 1020.3 1019.8 0.0
04/06:30pm 21.1 17.3 12.3 57 5.0 ESE 24 32 13 17 1020.1 1019.6 0.0
04/06:00pm 21.8 17.6 12.4 55 5.3 SE 26 35 14 19 1019.9 1019.4 0.0
04/05:30pm 23.2 18.6 12.2 50 6.3 SE 28 35 15 19 1019.7 1019.2 0.0
04/05:00pm 24.4 19.2 12.7 48 6.8 SE 32 39 17 21 1019.4 1018.9 0.0
04/04:30pm 24.9 18.9 12.2 45 7.3 SE 35 44 19 24 1019.4 1018.9 0.0
04/04:00pm 25.1 19.6 12.3 45 7.4 SE 33 44 18 24 1019.4 1018.9 0.0
04/03:30pm 25.9 20.5 12.7 44 7.7 SE 33 43 18 23 1019.6 1019.1 0.0
04/03:00pm 26.4 21.1 13.2 44 7.8 ESE 33 43 18 23 1019.9 1019.4 0.0
04/02:30pm 26.4 20.9 12.5 42 8.1 ESE 33 41 18 22 1020.4 1019.9 0.0
04/02:00pm 26.9 22.8 8.8 32 9.9 E 20 33 11 18 1020.8 1020.3 0.0

Other Formats:

Comma delimited format used in spreadsheet applications
http://www.bom.gov.au/fwo/IDW60801/IDW60801.95638.axf

JavaScript Object Notation format (JSON) in row-major order
http://www.bom.gov.au/fwo/IDW60801/IDW60801.95638.json